Omura, Japan
Current Conditions -  °F | °C
As of 9:00 PM on Wednesday 26 Nov 2014 (Local Time) from RJFU Reporting Station
Clear Clear  
Wind Chill: 57°   Ceiling: Unl
Heat Index: 57°   Visibility: 6mi
Dew Point: 50°   Wind: 8mph
Humidity: 77%   Direction: 350°N
Pressure: 30.06"   Gusts: NA
Location:  32.91°N, 129.95°E
Report Text: RJFU 261200Z 35007KT CAVOK 14/10 Q1018
Loading
Personal Weather Stations






























Interactive Weather Map New forecast layout! Learn more

10-Day Weather Forecast

Advertisements
Track Severe Weather on mobile